Time;durP1;ratioP1;P1;durP2;ratioP2;P2;SDS_P1;SDS_P2;PMS_P1;PMS_P2;Temp;Humidity;BMP_temperature;BMP_pressure;BME280_temperature;BME280_humidity;BME280_pressure;Samples;Min_cycle;Max_cycle;Signal;HPM_P1;HPM_P2
2022/08/08 00:01:31;;;;;;;4.38;2.25;;;18.80;51.50;;;;;;5032441;28;20052;-64
2022/08/08 00:04:10;;;;;;;2.60;2.17;;;18.80;51.70;;;;;;5031436;28;20060;-64
2022/08/08 00:06:48;;;;;;;3.40;2.10;;;18.70;51.70;;;;;;5031402;28;20391;-63
2022/08/08 00:09:27;;;;;;;3.25;1.98;;;18.70;51.70;;;;;;5031201;28;20102;-63
2022/08/08 00:12:05;;;;;;;3.05;2.10;;;18.70;51.70;;;;;;5031334;28;20438;-63
2022/08/08 00:14:52;;;;;;;2.70;2.00;;;18.60;51.70;;;;;;5032566;28;20500;-63
2022/08/08 00:17:29;;;;;;;2.90;1.50;;;18.60;51.60;;;;;;5031326;28;20045;-63
2022/08/08 00:20:06;;;;;;;2.33;1.70;;;18.60;51.60;;;;;;5030983;28;20049;-63
2022/08/08 00:22:45;;;;;;;2.70;1.92;;;18.50;51.60;;;;;;5030983;28;20060;-64
2022/08/08 00:25:30;;;;;;;2.58;1.90;;;18.50;51.70;;;;;;5032201;28;20042;-63
2022/08/08 00:27:58;;;;;;;;;;;18.50;51.80;;;;;;5032597;28;20490;-63
2022/08/08 00:30:29;;;;;;;1.80;1.60;;;18.40;51.20;;;;;;5031975;28;19996;-63
2022/08/08 00:33:06;;;;;;;2.58;1.77;;;18.40;51.70;;;;;;5030947;28;20048;-63
2022/08/08 00:35:40;;;;;;;1.90;1.50;;;18.40;51.80;;;;;;5031698;28;20177;-63
2022/08/08 00:38:24;;;;;;;;;;;18.40;51.80;;;;;;5036359;28;20069;-63
2022/08/08 00:41:40;;;;;;;3.33;1.90;;;18.30;51.30;;;;;;5034675;28;20294;-63
2022/08/08 00:44:24;;;;;;;2.50;2.00;;;18.30;51.60;;;;;;5034439;28;20051;-63
2022/08/08 00:47:10;;;;;;;2.65;1.98;;;18.30;51.80;;;;;;5035580;28;20049;-63
2022/08/08 00:49:54;;;;;;;3.95;1.90;;;18.20;51.80;;;;;;5023562;28;20046;-63
2022/08/08 00:52:45;;;;;;;3.03;2.17;;;18.20;51.90;;;;;;5035554;28;20048;-63
2022/08/08 00:55:48;;;;;;;3.97;1.75;;;18.10;51.90;;;;;;5034203;28;20069;-63
2022/08/08 00:58:26;;;;;;;2.60;2.15;;;18.10;51.90;;;;;;5034101;28;20045;-63
2022/08/08 01:01:10;;;;;;;3.35;2.45;;;18.10;52.10;;;;;;5034294;28;20129;-63
2022/08/08 01:03:54;;;;;;;3.65;2.20;;;18.10;52.10;;;;;;5034063;28;20045;-63
2022/08/08 01:06:38;;;;;;;2.77;1.87;;;18.00;52.20;;;;;;5033957;28;20046;-63
2022/08/08 01:09:51;;;;;;;3.35;1.80;;;18.00;52.20;;;;;;5034112;28;20053;-63
2022/08/08 01:12:29;;;;;;;2.95;1.85;;;18.00;52.20;;;;;;5022520;28;20049;-63
2022/08/08 01:15:19;;;;;;;2.40;2.05;;;18.00;52.30;;;;;;5033825;28;20048;-63
2022/08/08 01:18:08;;;;;;;3.35;2.08;;;17.90;52.20;;;;;;5033875;28;20037;-63
2022/08/08 01:21:10;;;;;;;2.58;2.15;;;17.90;52.20;;;;;;5033712;28;20054;-63
2022/08/08 01:23:54;;;;;;;2.22;1.75;;;17.90;52.30;;;;;;5034049;28;20041;-62
2022/08/08 01:26:37;;;;;;;3.05;1.95;;;17.80;52.30;;;;;;5033663;28;20101;-63
2022/08/08 01:29:24;;;;;;;2.05;1.60;;;17.90;52.40;;;;;;5034720;28;20483;-62
2022/08/08 01:32:21;;;;;;;2.03;1.55;;;17.80;52.40;;;;;;5033443;28;20464;-63
2022/08/08 01:34:56;;;;;;;2.45;1.55;;;17.80;52.50;;;;;;5033702;28;20041;-63
2022/08/08 01:37:46;;;;;;;3.15;1.65;;;17.80;52.50;;;;;;5050173;28;20394;-62
2022/08/08 01:40:36;;;;;;;2.28;1.80;;;17.80;52.40;;;;;;5033365;28;20076;-62
2022/08/08 01:43:43;;;;;;;1.92;1.65;;;17.70;52.50;;;;;;5033347;28;20052;-62
2022/08/08 01:46:45;;;;;;;2.72;2.25;;;17.70;52.60;;;;;;5015913;28;20037;-63
2022/08/08 01:49:20;;;;;;;2.17;1.70;;;17.60;52.50;;;;;;5032578;28;20057;-63
2022/08/08 01:51:57;;;;;;;1.95;1.60;;;17.60;52.50;;;;;;5033287;28;20046;-63
2022/08/08 01:54:44;;;;;;;2.33;1.73;;;17.60;52.50;;;;;;5034313;28;20041;-63
2022/08/08 01:57:25;;;;;;;1.88;1.38;;;17.50;52.50;;;;;;5033082;28;20048;-63
2022/08/08 02:00:06;;;;;;;1.83;1.50;;;17.50;52.90;;;;;;5033304;28;20143;-63
2022/08/08 02:03:05;;;;;;;2.00;1.45;;;17.50;52.60;;;;;;5033136;28;20050;-63
2022/08/08 02:05:58;;;;;;;1.23;1.10;;;17.50;52.60;;;;;;5034240;28;20041;-63
2022/08/08 02:09:01;;;;;;;2.97;2.05;;;17.40;52.70;;;;;;5032753;28;20503;-63
2022/08/08 02:11:35;;;;;;;3.42;1.50;;;17.40;52.70;;;;;;5032768;28;20077;-63
2022/08/08 02:14:25;;;;;;;1.83;1.40;;;17.30;52.80;;;;;;5032780;28;20153;-63
2022/08/08 02:17:03;;;;;;;2.22;1.50;;;17.40;52.90;;;;;;5032686;28;20045;-63
2022/08/08 02:19:40;;;;;;;1.58;1.48;;;17.30;52.90;;;;;;5032634;28;20107;-63
2022/08/08 02:22:30;;;;;;;1.70;1.40;;;17.30;52.90;;;;;;5033675;28;20091;-63
2022/08/08 02:24:58;;;;;;;1.95;1.60;;;17.30;52.90;;;;;;5032501;28;20041;-63
2022/08/08 02:27:43;;;;;;;3.20;1.50;;;17.30;53.00;;;;;;5033654;28;20124;-63
2022/08/08 02:30:38;;;;;;;1.92;1.38;;;17.20;53.00;;;;;;5032112;28;20053;-68
2022/08/08 02:33:09;;;;;;;;;;;17.20;52.90;;;;;;5040400;28;20049;-67
2022/08/08 02:35:54;;;;;;;2.38;1.50;;;17.20;52.60;;;;;;5032272;28;20004;-68
2022/08/08 02:38:46;;;;;;;1.63;1.48;;;17.20;52.90;;;;;;5032298;28;20124;-67
2022/08/08 02:41:27;;;;;;;2.42;1.50;;;17.20;52.90;;;;;;5048985;28;20441;-67
2022/08/08 02:44:10;;;;;;;2.00;1.65;;;17.10;53.00;;;;;;5032438;28;20045;-67
2022/08/08 02:46:48;;;;;;;1.80;1.48;;;17.10;53.00;;;;;;5032159;28;20124;-68
2022/08/08 02:49:19;;;;;;;2.08;1.60;;;17.10;53.00;;;;;;5031936;28;20165;-67
2022/08/08 02:52:05;;;;;;;1.83;1.40;;;17.10;53.00;;;;;;5033127;28;20475;-67
2022/08/08 02:54:37;;;;;;;2.97;1.50;;;17.10;53.00;;;;;;5033251;28;20100;-67
2022/08/08 02:57:08;;;;;;;1.48;1.10;;;17.10;53.00;;;;;;5031930;28;20037;-67
2022/08/08 03:00:17;;;;;;;1.60;1.20;;;17.10;53.00;;;;;;5031669;28;20049;-68
2022/08/08 03:03:04;;;;;;;1.58;1.30;;;17.00;52.80;;;;;;5032131;28;20222;-67
2022/08/08 03:05:52;;;;;;;1.73;1.58;;;17.00;53.00;;;;;;5031849;28;20048;-67
2022/08/08 03:08:48;;;;;;;2.72;1.30;;;17.00;53.00;;;;;;5031863;28;20049;-67
2022/08/08 03:11:23;;;;;;;1.85;1.20;;;17.00;53.00;;;;;;5031628;28;20057;-67
2022/08/08 03:14:14;;;;;;;1.77;1.40;;;17.00;53.00;;;;;;5031857;28;20076;-68
2022/08/08 03:17:22;;;;;;;2.03;1.60;;;17.00;53.00;;;;;;5033123;28;20037;-67
2022/08/08 03:20:10;;;;;;;2.03;1.40;;;17.00;53.10;;;;;;4967194;28;20053;-68
2022/08/08 03:22:47;;;;;;;2.60;1.77;;;16.90;53.00;;;;;;5046101;28;20078;-67
2022/08/08 03:25:14;;;;;;;1.95;1.30;;;16.90;53.10;;;;;;5031586;28;20079;-62
2022/08/08 03:27:44;;;;;;;1.60;1.20;;;16.90;53.10;;;;;;5031552;28;20049;-62
2022/08/08 03:30:13;;;;;;;1.75;1.48;;;16.90;53.10;;;;;;5031247;28;20530;-62
2022/08/08 03:35:25;;;;;;;1.92;1.35;;;16.90;53.20;;;;;;5032660;28;20083;-63
2022/08/08 03:37:51;;;;;;;2.00;1.70;;;16.80;53.20;;;;;;5032821;28;20045;-63
2022/08/08 03:40:19;;;;;;;2.30;1.38;;;16.80;53.20;;;;;;5031294;28;20120;-63
2022/08/08 03:42:46;;;;;;;1.42;1.10;;;16.80;53.20;;;;;;5031573;28;20072;-63
2022/08/08 03:45:21;;;;;;;3.10;2.03;;;16.80;53.30;;;;;;4999026;28;20096;-64
2022/08/08 03:48:08;;;;;;;2.28;1.58;;;16.80;53.40;;;;;;5031344;28;20056;-63
2022/08/08 03:50:35;;;;;;;1.90;1.50;;;16.80;53.40;;;;;;5031267;28;20042;-63
2022/08/08 03:53:10;;;;;;;2.60;1.90;;;16.70;53.40;;;;;;5032406;28;20041;-63
2022/08/08 03:55:42;;;;;;;3.15;1.60;;;16.70;53.50;;;;;;5031247;28;20041;-64
2022/08/08 03:58:08;;;;;;;2.25;1.88;;;16.70;53.60;;;;;;5032667;28;20041;-63
2022/08/08 04:00:34;;;;;;;2.70;1.60;;;16.70;53.60;;;;;;5031408;28;20056;-64
2022/08/08 04:03:03;;;;;;;2.50;1.75;;;16.70;53.60;;;;;;5031197;28;20486;-64
2022/08/08 04:05:31;;;;;;;1.80;1.50;;;16.60;53.70;;;;;;5031158;28;20056;-63
2022/08/08 04:07:58;;;;;;;2.20;1.40;;;16.60;53.80;;;;;;5032639;28;20048;-63
2022/08/08 04:10:24;;;;;;;2.55;1.42;;;16.60;53.80;;;;;;5031357;28;20052;-64
2022/08/08 04:12:50;;;;;;;2.35;1.80;;;16.60;53.80;;;;;;5036261;28;20503;-63
2022/08/08 04:15:15;;;;;;;2.88;1.83;;;16.60;53.90;;;;;;5018381;28;20047;-63
2022/08/08 04:17:41;;;;;;;1.75;1.40;;;16.60;53.90;;;;;;5034896;28;20071;-63
2022/08/08 04:20:07;;;;;;;1.75;1.30;;;16.50;53.80;;;;;;5034703;28;20045;-63
2022/08/08 04:22:35;;;;;;;1.80;1.25;;;16.50;53.80;;;;;;5034828;28;20041;-63
2022/08/08 04:25:00;;;;;;;2.20;1.55;;;16.50;53.80;;;;;;5036199;28;20048;-63
2022/08/08 04:27:26;;;;;;;2.65;1.20;;;16.50;53.80;;;;;;5034775;28;20112;-63
2022/08/08 04:29:52;;;;;;;1.48;1.27;;;16.50;53.80;;;;;;5034450;28;20041;-64
2022/08/08 04:32:18;;;;;;;1.95;1.00;;;16.50;53.80;;;;;;5034791;28;20114;-63
2022/08/08 04:34:44;;;;;;;1.55;1.30;;;16.50;53.90;;;;;;5034792;28;20038;-63
2022/08/08 04:37:11;;;;;;;2.45;1.40;;;16.50;53.90;;;;;;5034554;28;20096;-62
2022/08/08 04:39:38;;;;;;;2.03;1.40;;;16.50;53.90;;;;;;5034567;28;20099;-62
2022/08/08 04:42:03;;;;;;;2.20;1.27;;;16.50;54.00;;;;;;5034944;28;20112;-68
2022/08/08 04:44:30;;;;;;;2.80;1.30;;;16.50;54.00;;;;;;5034684;28;20037;-68
2022/08/08 04:46:55;;;;;;;2.22;1.48;;;16.50;54.00;;;;;;5035680;28;20151;-68
2022/08/08 04:49:21;;;;;;;2.63;1.67;;;16.40;54.10;;;;;;5035514;28;20124;-68
2022/08/08 04:51:47;;;;;;;2.25;1.40;;;16.40;54.20;;;;;;5034560;28;20196;-69
2022/08/08 04:54:13;;;;;;;1.70;1.30;;;16.40;54.20;;;;;;5035917;28;20037;-68
2022/08/08 04:56:38;;;;;;;1.73;1.42;;;16.40;54.20;;;;;;5035533;28;20049;-69
2022/08/08 04:59:04;;;;;;;4.57;2.30;;;16.40;54.20;;;;;;5017798;28;20406;-69
2022/08/08 05:01:30;;;;;;;2.42;1.75;;;16.40;54.30;;;;;;5034152;28;20056;-68
2022/08/08 05:03:56;;;;;;;3.00;2.45;;;16.40;54.40;;;;;;5034146;28;20099;-68
2022/08/08 05:06:21;;;;;;;3.03;2.17;;;16.30;54.30;;;;;;5034167;28;20041;-68
2022/08/08 05:08:47;;;;;;;3.22;2.85;;;16.30;54.50;;;;;;5034023;28;20041;-68
2022/08/08 05:11:13;;;;;;;2.97;2.45;;;16.30;54.80;;;;;;5033940;28;20037;-68
2022/08/08 05:13:42;;;;;;;2.53;2.20;;;16.30;54.80;;;;;;5033944;28;20088;-68
2022/08/08 05:16:09;;;;;;;2.85;2.40;;;16.30;54.90;;;;;;5033853;28;20547;-68
2022/08/08 05:18:35;;;;;;;5.68;2.65;;;16.30;55.00;;;;;;5017455;28;20084;-68
2022/08/08 05:21:07;;;;;;;3.17;2.60;;;16.30;55.10;;;;;;5033730;28;20045;-68
2022/08/08 05:23:33;;;;;;;4.28;2.60;;;16.30;55.30;;;;;;5033551;28;20075;-68
2022/08/08 05:26:00;;;;;;;2.95;2.42;;;16.30;55.50;;;;;;5033550;28;20049;-68
2022/08/08 05:28:26;;;;;;;3.45;2.38;;;16.40;55.70;;;;;;5033651;28;20120;-68
2022/08/08 05:30:52;;;;;;;3.47;2.55;;;16.40;55.80;;;;;;5033359;28;20482;-68
2022/08/08 05:33:18;;;;;;;4.00;2.28;;;16.40;55.90;;;;;;5035180;28;20036;-68
2022/08/08 05:35:45;;;;;;;2.22;1.90;;;16.50;56.00;;;;;;5033831;28;20580;-68
2022/08/08 05:38:15;;;;;;;3.13;2.40;;;16.50;56.00;;;;;;5033481;28;20124;-68
2022/08/08 05:40:45;;;;;;;4.03;2.42;;;16.50;56.00;;;;;;5034644;28;20429;-68
2022/08/08 05:43:20;;;;;;;3.30;2.50;;;16.50;56.00;;;;;;5034561;28;20581;-63
2022/08/08 05:45:47;;;;;;;3.90;2.92;;;16.60;56.20;;;;;;5034491;28;20048;-63
2022/08/08 05:48:13;;;;;;;4.07;2.55;;;16.60;56.30;;;;;;5034453;28;20036;-64
2022/08/08 05:50:39;;;;;;;5.28;3.15;;;16.60;57.10;;;;;;5033171;28;20042;-63
2022/08/08 05:53:05;;;;;;;3.97;2.72;;;16.70;57.40;;;;;;5033092;28;20131;-63
2022/08/08 05:55:34;;;;;;;3.33;2.92;;;16.80;57.90;;;;;;5049673;28;20049;-63
2022/08/08 05:58:02;;;;;;;4.43;2.90;;;17.00;58.40;;;;;;5032917;28;20038;-64
2022/08/08 06:00:31;;;;;;;4.15;3.17;;;17.30;58.50;;;;;;5033082;28;20047;-63
2022/08/08 06:03:12;;;;;;;3.63;3.03;;;17.70;58.20;;;;;;5034432;28;20180;-63
2022/08/08 06:05:50;;;;;;;7.07;2.72;;;18.10;57.70;;;;;;5034178;28;20289;-64
2022/08/08 06:08:29;;;;;;;3.45;2.50;;;18.60;57.70;;;;;;5032769;28;20056;-63
2022/08/08 06:10:56;;;;;;;4.15;2.47;;;19.00;57.10;;;;;;5032747;28;20046;-63
2022/08/08 06:13:23;;;;;;;4.28;2.50;;;19.70;56.70;;;;;;5032744;28;20038;-64
2022/08/08 06:15:51;;;;;;;4.45;2.47;;;20.30;56.10;;;;;;5033874;28;20037;-63
2022/08/08 06:18:17;;;;;;;5.72;3.05;;;20.80;55.40;;;;;;5032631;28;20045;-62
2022/08/08 06:20:44;;;;;;;5.97;3.35;;;21.30;55.10;;;;;;5032560;28;20050;-63
2022/08/08 06:23:10;;;;;;;7.35;3.53;;;21.80;54.00;;;;;;5016551;28;20083;-63
2022/08/08 06:25:40;;;;;;;6.97;3.55;;;22.30;53.40;;;;;;5032668;28;20049;-63
2022/08/08 06:28:52;;;;;;;7.63;3.80;;;22.80;52.70;;;;;;5032455;28;20033;-63
2022/08/08 06:31:22;;;;;;;6.43;2.88;;;23.40;52.00;;;;;;5031576;28;20399;-63
2022/08/08 06:34:01;;;;;;;6.32;3.15;;;24.00;51.20;;;;;;5031785;28;20483;-63
2022/08/08 06:36:36;;;;;;;6.00;2.88;;;24.50;50.20;;;;;;5033630;28;20033;-63
2022/08/08 06:39:02;;;;;;;9.20;3.00;;;24.90;49.40;;;;;;5032252;28;20081;-63
2022/08/08 06:41:31;;;;;;;5.53;3.00;;;25.40;48.50;;;;;;5032280;28;20135;-63
2022/08/08 06:44:00;;;;;;;9.90;4.18;;;25.70;47.70;;;;;;5033398;28;20095;-63
2022/08/08 06:46:26;;;;;;;5.22;2.67;;;26.00;46.90;;;;;;5032453;28;20402;-63
2022/08/08 06:48:52;;;;;;;7.95;3.30;;;26.30;46.30;;;;;;5033406;28;20038;-63
2022/08/08 06:51:20;;;;;;;5.90;2.83;;;26.60;45.70;;;;;;5031837;28;20099;-64
2022/08/08 06:53:45;;;;;;;5.70;3.50;;;26.80;45.10;;;;;;5032015;28;20099;-64
2022/08/08 06:56:12;;;;;;;8.35;3.67;;;27.00;45.00;;;;;;5031958;28;20042;-64
2022/08/08 06:58:38;;;;;;;4.20;2.30;;;27.20;44.60;;;;;;5015711;28;20128;-63
2022/08/08 07:01:06;;;;;;;5.15;2.53;;;27.40;44.40;;;;;;5031911;28;20128;-64
2022/08/08 07:03:54;;;;;;;5.13;2.53;;;27.50;43.50;;;;;;5048538;28;20095;-64
2022/08/08 07:06:23;;;;;;;5.55;3.08;;;27.80;43.80;;;;;;5033725;28;20046;-65
2022/08/08 07:08:52;;;;;;;5.18;2.67;;;28.00;43.30;;;;;;5032070;28;20510;-64
2022/08/08 07:11:21;;;;;;;4.45;1.70;;;28.20;42.70;;;;;;5033002;28;20478;-65
2022/08/08 07:13:52;;;;;;;3.60;1.30;;;28.30;42.40;;;;;;5031736;28;20575;-69
2022/08/08 07:16:26;;;;;;;4.10;1.30;;;28.30;41.40;;;;;;5031965;28;20041;-69
2022/08/08 07:18:56;;;;;;;4.47;1.73;;;28.30;41.70;;;;;;5031907;28;20080;-69
2022/08/08 07:21:27;;;;;;;3.58;1.40;;;28.20;41.60;;;;;;5031677;28;20103;-69
2022/08/08 07:24:10;;;;;;;4.88;0.98;;;28.20;41.40;;;;;;5031632;28;20056;-69
2022/08/08 07:26:38;;;;;;;3.60;1.00;;;28.20;41.40;;;;;;5031632;28;20049;-69
2022/08/08 07:29:04;;;;;;;3.08;1.13;;;28.30;41.50;;;;;;5031492;28;20498;-69
2022/08/08 07:31:31;;;;;;;4.60;1.00;;;28.40;41.80;;;;;;5032781;28;20514;-68
2022/08/08 07:33:57;;;;;;;2.88;1.10;;;28.40;41.10;;;;;;5031663;28;20075;-68
2022/08/08 07:36:26;;;;;;;3.65;0.90;;;28.40;41.40;;;;;;5031554;28;20106;-68
2022/08/08 07:38:52;;;;;;;4.22;1.15;;;28.30;41.40;;;;;;5032989;28;20166;-68
2022/08/08 07:41:18;;;;;;;3.00;1.05;;;28.30;41.30;;;;;;4998731;28;20049;-68
2022/08/08 07:43:44;;;;;;;3.42;1.10;;;28.40;41.30;;;;;;5031398;28;20042;-69
2022/08/08 07:46:10;;;;;;;3.90;1.48;;;28.40;41.50;;;;;;5033200;28;20037;-69
2022/08/08 07:48:36;;;;;;;3.65;1.23;;;28.50;41.30;;;;;;5036714;28;20034;-69
2022/08/08 07:51:03;;;;;;;3.90;0.90;;;28.60;41.20;;;;;;5018955;28;20072;-69
2022/08/08 07:53:42;;;;;;;5.05;1.02;;;28.70;40.80;;;;;;5035811;28;20033;-70
2022/08/08 07:56:10;;;;;;;3.45;1.00;;;28.70;40.70;;;;;;5035552;28;20446;-69
2022/08/08 07:58:40;;;;;;;1.88;0.70;;;28.80;40.90;;;;;;5002694;28;20135;-70
2022/08/08 08:01:12;;;;;;;2.80;1.00;;;28.80;40.00;;;;;;5035452;28;20041;-69
2022/08/08 08:03:54;;;;;;;3.70;0.77;;;28.60;40.00;;;;;;5035529;28;20053;-69
2022/08/08 08:06:20;;;;;;;2.40;1.10;;;28.40;40.30;;;;;;5035411;28;20072;-70
2022/08/08 08:08:52;;;;;;;5.00;0.70;;;28.40;41.10;;;;;;5035199;28;20046;-69
2022/08/08 08:11:22;;;;;;;2.35;0.88;;;28.40;40.50;;;;;;5035049;28;20388;-69
2022/08/08 08:14:01;;;;;;;2.90;0.65;;;28.50;40.60;;;;;;5036510;28;20364;-69
2022/08/08 08:16:29;;;;;;;2.15;0.70;;;28.60;40.00;;;;;;5051625;28;20045;-70
2022/08/08 08:18:58;;;;;;;3.50;0.80;;;28.50;40.00;;;;;;5035282;28;20072;-69
2022/08/08 08:21:28;;;;;;;3.22;0.95;;;28.50;39.40;;;;;;5035236;28;20081;-69
2022/08/08 08:23:54;;;;;;;4.28;1.35;;;28.40;39.70;;;;;;5034807;28;20050;-70
2022/08/08 08:26:20;;;;;;;3.47;1.10;;;28.40;39.80;;;;;;5036350;28;20049;-69
2022/08/08 08:28:47;;;;;;;4.35;0.90;;;28.40;40.00;;;;;;5034728;28;20125;-70
2022/08/08 08:31:13;;;;;;;3.35;1.00;;;28.30;39.70;;;;;;5034726;28;20054;-65
2022/08/08 08:33:39;;;;;;;4.18;1.00;;;28.30;39.80;;;;;;5034688;28;20045;-64
2022/08/08 08:36:10;;;;;;;4.47;1.42;;;28.20;39.90;;;;;;5034647;28;20041;-65
2022/08/08 08:38:36;;;;;;;1.88;0.90;;;28.20;40.10;;;;;;5035862;28;20147;-65
2022/08/08 08:41:02;;;;;;;3.38;0.80;;;28.10;40.00;;;;;;5035749;28;20129;-65
2022/08/08 08:43:29;;;;;;;2.22;0.70;;;27.90;39.50;;;;;;5034494;28;20049;-65
2022/08/08 08:45:56;;;;;;;2.83;0.70;;;27.80;39.80;;;;;;5034426;28;20124;-65
2022/08/08 08:48:22;;;;;;;5.60;1.05;;;27.80;40.20;;;;;;5034303;28;20038;-65
2022/08/08 08:50:52;;;;;;;1.75;0.60;;;27.80;40.60;;;;;;5035353;28;20043;-65
2022/08/08 08:53:20;;;;;;;3.72;0.80;;;27.70;39.90;;;;;;5034069;28;20045;-65
2022/08/08 08:55:47;;;;;;;1.92;0.68;;;27.60;39.90;;;;;;5034155;28;20037;-65
2022/08/08 08:58:29;;;;;;;2.28;0.70;;;27.60;39.60;;;;;;5033603;28;20091;-65
2022/08/08 09:00:58;;;;;;;3.15;0.85;;;27.50;39.70;;;;;;5035465;28;20116;-65
2022/08/08 09:03:24;;;;;;;1.75;0.43;;;27.50;39.10;;;;;;5035370;28;20049;-65
2022/08/08 09:05:51;;;;;;;3.00;0.60;;;27.40;39.40;;;;;;5035352;28;20041;-65
2022/08/08 09:08:19;;;;;;;2.00;0.75;;;27.50;39.50;;;;;;5034167;28;20046;-65
2022/08/08 09:10:45;;;;;;;1.35;0.75;;;27.50;39.80;;;;;;5035069;28;20060;-65
2022/08/08 09:13:12;;;;;;;3.35;0.80;;;27.60;39.10;;;;;;5033917;28;20095;-65
2022/08/08 09:15:38;;;;;;;2.10;0.75;;;27.40;39.20;;;;;;5034148;28;20162;-65
2022/08/08 09:18:06;;;;;;;2.85;0.70;;;27.30;39.80;;;;;;5035048;28;20069;-65
2022/08/08 09:20:32;;;;;;;2.97;0.88;;;27.20;39.40;;;;;;5033618;28;20486;-65
2022/08/08 09:22:58;;;;;;;2.33;0.60;;;27.10;39.30;;;;;;5033733;28;20034;-65
2022/08/08 09:25:24;;;;;;;1.65;0.52;;;27.00;39.10;;;;;;5033755;28;20129;-65
2022/08/08 09:27:50;;;;;;;1.15;0.60;;;26.90;38.60;;;;;;5033683;28;20140;-64
2022/08/08 09:30:17;;;;;;;2.38;0.98;;;26.90;39.30;;;;;;5034640;28;20049;-64
2022/08/08 09:32:48;;;;;;;1.67;0.52;;;26.80;39.20;;;;;;5050249;28;20038;-64
2022/08/08 09:35:19;;;;;;;4.07;1.88;;;26.90;40.00;;;;;;5034921;28;20034;-64
2022/08/08 09:37:48;;;;;;;3.38;0.80;;;26.90;39.40;;;;;;5033721;28;20107;-63
2022/08/08 09:40:27;;;;;;;2.58;0.70;;;26.80;40.00;;;;;;5049942;28;20114;-63
2022/08/08 09:43:08;;;;;;;1.02;0.50;;;26.90;40.40;;;;;;5018418;28;20482;-63
2022/08/08 09:45:50;;;;;;;2.28;0.50;;;26.90;39.60;;;;;;5034550;28;20049;-63
2022/08/08 09:48:17;;;;;;;1.02;0.52;;;26.90;40.30;;;;;;5033198;28;20553;-64
2022/08/08 09:50:45;;;;;;;1.77;0.55;;;26.90;40.20;;;;;;5016843;28;20457;-64
2022/08/08 09:53:17;;;;;;;1.85;0.50;;;27.00;40.00;;;;;;5033105;28;20113;-63
2022/08/08 09:55:45;;;;;;;3.25;0.52;;;27.10;40.60;;;;;;5033612;28;20045;-63
2022/08/08 09:58:16;;;;;;;1.75;0.50;;;27.10;40.50;;;;;;5034360;28;20561;-64
2022/08/08 10:00:44;;;;;;;3.60;0.65;;;27.20;40.70;;;;;;5033021;28;20128;-66
2022/08/08 10:03:14;;;;;;;2.30;1.05;;;27.20;40.70;;;;;;5034145;28;20128;-63
2022/08/08 10:05:40;;;;;;;3.20;0.82;;;27.30;41.00;;;;;;5034245;28;20045;-63
2022/08/08 10:08:07;;;;;;;2.67;0.60;;;27.30;41.10;;;;;;5032263;28;20111;-63
2022/08/08 10:10:36;;;;;;;1.83;0.65;;;27.30;41.20;;;;;;5034068;28;20041;-68
2022/08/08 10:13:23;;;;;;;1.67;0.70;;;27.30;41.20;;;;;;5034149;28;20037;-64
2022/08/08 10:15:54;;;;;;;1.52;0.63;;;27.30;41.20;;;;;;5032903;28;20501;-64
2022/08/08 10:18:28;;;;;;;1.83;0.70;;;27.30;41.00;;;;;;5032880;28;20052;-64
2022/08/08 10:21:03;;;;;;;1.88;0.70;;;27.30;40.80;;;;;;5032750;28;20364;-65
2022/08/08 10:23:49;;;;;;;2.15;0.75;;;27.40;40.60;;;;;;5034064;28;20064;-64
2022/08/08 10:26:19;;;;;;;1.33;0.60;;;27.30;40.70;;;;;;5032853;28;20046;-64
2022/08/08 10:29:01;;;;;;;1.73;0.50;;;27.40;40.60;;;;;;5032344;28;20129;-64
2022/08/08 10:34:18;;;;;;;4.10;0.80;;;27.50;40.50;;;;;;5032341;28;20128;-63
2022/08/08 10:36:44;;;;;;;3.67;0.60;;;27.50;40.60;;;;;;5033445;28;20733;-63
2022/08/08 10:39:15;;;;;;;1.98;0.60;;;27.60;40.50;;;;;;5032142;28;20037;-64
2022/08/08 10:41:43;;;;;;;2.30;0.82;;;27.60;40.60;;;;;;5032539;28;20033;-64
2022/08/08 10:44:11;;;;;;;1.58;0.68;;;27.70;40.20;;;;;;5033708;28;20137;-63
2022/08/08 10:46:37;;;;;;;4.00;0.70;;;27.70;40.20;;;;;;5032073;28;20532;-63
2022/08/08 10:49:03;;;;;;;0.93;0.50;;;27.70;40.30;;;;;;5048644;28;20037;-63
2022/08/08 10:51:35;;;;;;;2.30;0.40;;;27.80;39.90;;;;;;5033095;28;20493;-63
2022/08/08 10:54:01;;;;;;;0.95;0.52;;;27.80;39.90;;;;;;5033257;28;20486;-63
2022/08/08 10:56:33;;;;;;;2.22;0.52;;;27.80;40.10;;;;;;5033268;28;20045;-63
2022/08/08 10:58:59;;;;;;;2.55;0.65;;;27.80;39.80;;;;;;5031897;28;20498;-64
2022/08/08 11:01:30;;;;;;;1.42;0.40;;;27.70;39.90;;;;;;5031840;28;20541;-63
2022/08/08 11:04:00;;;;;;;13.25;1.52;;;27.80;40.00;;;;;;5031731;28;20056;-63
2022/08/08 11:06:34;;;;;;;1.88;0.60;;;27.70;39.90;;;;;;5032038;28;20361;-63
2022/08/08 11:09:06;;;;;;;1.23;0.60;;;27.80;40.00;;;;;;5032073;28;20041;-63
2022/08/08 11:11:39;;;;;;;3.13;1.20;;;27.80;39.40;;;;;;5015247;28;20050;-63
2022/08/08 11:14:05;;;;;;;;;;;27.80;39.20;;;;;;5032142;28;20069;-63
2022/08/08 11:16:34;;;;;;;1.50;0.70;;;27.80;39.90;;;;;;5015320;28;19964;-64
2022/08/08 11:19:01;;;;;;;2.72;0.80;;;27.90;39.40;;;;;;5032864;28;20037;-62
2022/08/08 11:21:33;;;;;;;3.28;0.70;;;27.90;38.90;;;;;;5031641;28;20045;-62
2022/08/08 11:24:04;;;;;;;2.42;0.65;;;27.80;39.10;;;;;;5032848;28;20047;-63
2022/08/08 11:26:34;;;;;;;2.90;0.70;;;27.80;39.10;;;;;;5031448;28;20095;-62
2022/08/08 11:29:05;;;;;;;1.42;0.52;;;27.70;39.10;;;;;;5031466;28;20511;-63
2022/08/08 11:31:47;;;;;;;2.15;0.55;;;27.70;39.40;;;;;;5031237;28;20127;-63
2022/08/08 11:34:17;;;;;;;1.33;0.80;;;27.60;39.50;;;;;;5032843;28;20049;-64
2022/08/08 11:36:43;;;;;;;2.03;0.57;;;27.60;40.20;;;;;;5014986;28;20046;-63
2022/08/08 11:39:11;;;;;;;1.65;0.60;;;27.60;40.80;;;;;;5031387;28;20075;-63
2022/08/08 11:41:38;;;;;;;2.53;0.65;;;27.60;41.10;;;;;;5031652;28;20441;-64
2022/08/08 11:44:07;;;;;;;1.83;0.50;;;27.60;41.20;;;;;;5031610;28;20495;-64
2022/08/08 11:46:33;;;;;;;3.47;0.70;;;27.60;41.50;;;;;;5031358;28;20069;-63
2022/08/08 11:49:06;;;;;;;2.42;0.88;;;27.60;41.60;;;;;;5032647;28;20037;-63
2022/08/08 11:51:34;;;;;;;3.13;0.60;;;27.60;41.40;;;;;;5032381;28;20651;-63
2022/08/08 11:54:00;;;;;;;1.92;0.60;;;27.60;41.30;;;;;;5031266;28;20049;-63
2022/08/08 11:56:32;;;;;;;2.15;0.88;;;27.50;41.70;;;;;;5032371;28;20036;-64
2022/08/08 11:59:06;;;;;;;2.50;0.60;;;27.50;41.60;;;;;;5014800;28;20041;-63
2022/08/08 12:01:32;;;;;;;2.13;0.80;;;27.50;41.70;;;;;;5032488;28;20060;-63
2022/08/08 12:03:59;;;;;;;2.85;0.80;;;27.50;41.70;;;;;;5031217;28;20049;-63
2022/08/08 12:06:24;;;;;;;2.67;0.70;;;27.50;41.90;;;;;;5032429;28;20052;-63
2022/08/08 12:08:50;;;;;;;3.90;1.05;;;27.50;41.60;;;;;;5031443;28;20053;-64
2022/08/08 12:11:20;;;;;;;2.97;1.00;;;27.40;41.80;;;;;;4998286;28;20543;-63
2022/08/08 12:13:49;;;;;;;2.58;0.93;;;27.50;41.90;;;;;;5047992;28;20038;-63
2022/08/08 12:16:19;;;;;;;2.08;0.80;;;27.50;42.00;;;;;;5031361;28;20042;-63
2022/08/08 12:18:48;;;;;;;2.90;1.02;;;27.50;41.60;;;;;;5032302;28;20073;-63
2022/08/08 12:21:30;;;;;;;2.45;0.60;;;27.50;41.50;;;;;;5030827;28;20052;-63
2022/08/08 12:24:06;;;;;;;3.35;1.30;;;27.40;40.60;;;;;;5031104;28;20459;-63
2022/08/08 12:26:44;;;;;;;2.55;0.80;;;27.40;41.10;;;;;;5031018;28;20111;-63
2022/08/08 12:29:31;;;;;;;2.33;0.75;;;27.40;41.00;;;;;;5031006;28;20044;-63
2022/08/08 12:32:05;;;;;;;2.83;1.08;;;27.30;41.30;;;;;;5048657;28;20054;-63
2022/08/08 12:34:38;;;;;;;3.63;0.70;;;27.30;40.80;;;;;;5034712;28;20073;-63
2022/08/08 12:37:06;;;;;;;2.58;0.70;;;27.20;40.30;;;;;;5034602;28;20041;-67
2022/08/08 12:39:32;;;;;;;2.63;1.00;;;27.10;40.50;;;;;;5034922;28;20053;-67
2022/08/08 12:41:59;;;;;;;2.28;0.60;;;27.10;41.10;;;;;;5034791;28;20048;-67
2022/08/08 12:44:29;;;;;;;3.38;0.75;;;27.10;41.20;;;;;;5035584;28;20491;-67
2022/08/08 12:46:56;;;;;;;2.25;0.75;;;27.10;41.20;;;;;;5035795;28;20116;-68
2022/08/08 12:49:27;;;;;;;2.33;0.73;;;27.10;40.80;;;;;;5034453;28;20041;-63
2022/08/08 12:51:53;;;;;;;2.75;0.80;;;27.10;41.10;;;;;;5034278;28;20048;-63
2022/08/08 12:54:21;;;;;;;2.28;0.60;;;27.10;41.10;;;;;;5034226;28;20065;-63
2022/08/08 12:56:47;;;;;;;1.67;0.60;;;27.10;40.80;;;;;;5034220;28;20041;-63
2022/08/08 12:59:29;;;;;;;2.88;0.75;;;27.20;40.60;;;;;;5034186;28;20056;-63
2022/08/08 13:01:58;;;;;;;2.50;0.77;;;27.20;40.70;;;;;;5034163;28;20080;-63
2022/08/08 13:04:28;;;;;;;3.85;0.85;;;27.20;40.50;;;;;;5035488;28;20045;-63
2022/08/08 13:07:05;;;;;;;2.63;0.88;;;27.30;40.40;;;;;;5034109;28;20045;-63
2022/08/08 13:09:56;;;;;;;2.58;0.50;;;27.30;39.60;;;;;;5033879;28;20049;-63
2022/08/08 13:12:33;;;;;;;3.03;0.93;;;27.40;39.90;;;;;;5034017;28;20045;-63
2022/08/08 13:15:02;;;;;;;1.52;0.50;;;27.30;38.50;;;;;;5035258;28;20073;-63
2022/08/08 13:17:32;;;;;;;3.30;0.95;;;27.20;39.00;;;;;;5035002;28;20045;-62
2022/08/08 13:19:58;;;;;;;1.88;0.50;;;27.20;39.70;;;;;;5033765;28;20049;-63
2022/08/08 13:22:24;;;;;;;4.07;1.25;;;27.20;40.00;;;;;;5035071;28;20136;-64
2022/08/08 13:24:50;;;;;;;2.33;0.75;;;27.20;39.40;;;;;;5033790;28;20045;-63